createdAt,value
2017-10-31T00:00:31.375Z,1024.03
2017-10-31T00:01:40.354Z,1024.05
2017-10-31T00:02:49.010Z,1024.05
2017-10-31T00:03:57.655Z,1024.05
2017-10-31T00:05:06.632Z,1024.05
2017-10-31T00:06:15.948Z,1024.01
2017-10-31T00:07:24.646Z,1024.02
2017-10-31T00:08:33.296Z,1023.98
2017-10-31T00:09:42.281Z,1023.99
2017-10-31T00:10:51.593Z,1023.98
2017-10-31T00:12:01.232Z,1023.98
2017-10-31T00:13:09.921Z,1024.02
2017-10-31T00:14:19.560Z,1024.04
2017-10-31T00:15:28.205Z,1024.01
2017-10-31T00:16:37.200Z,1023.99
2017-10-31T00:17:47.163Z,1024.01
2017-10-31T00:18:56.488Z,1024.01
2017-10-31T00:20:05.790Z,1023.99
2017-10-31T00:21:14.439Z,1024.02
2017-10-31T00:22:24.095Z,1024.01
2017-10-31T00:23:33.097Z,1024.02
2017-10-31T00:24:42.096Z,1024.01
2017-10-31T00:25:51.174Z,1024.02
2017-10-31T00:27:00.183Z,1023.99
2017-10-31T00:28:09.841Z,1023.99
2017-10-31T00:29:19.170Z,1023.97
2017-10-31T00:30:28.146Z,1024
2017-10-31T00:31:36.794Z,1024.02
2017-10-31T00:32:45.771Z,1024.03
2017-10-31T00:33:54.754Z,1024.03
2017-10-31T00:35:03.398Z,1024.03
2017-10-31T00:36:12.065Z,1024.03
2017-10-31T00:37:21.393Z,1024.01
2017-10-31T00:38:31.104Z,1024.02
2017-10-31T00:39:40.759Z,1024.04
2017-10-31T00:40:49.753Z,1024.04
2017-10-31T00:41:59.389Z,1024.04
2017-10-31T00:43:08.462Z,1024
2017-10-31T00:44:17.117Z,1023.99
2017-10-31T00:45:26.752Z,1023.98
2017-10-31T00:46:35.740Z,1023.98
2017-10-31T00:47:44.731Z,1023.98
2017-10-31T00:48:53.707Z,1023.98
2017-10-31T00:50:03.029Z,1023.96
2017-10-31T00:51:12.002Z,1023.94
2017-10-31T00:52:21.015Z,1023.93
2017-10-31T00:53:30.319Z,1023.95
2017-10-31T00:54:39.297Z,1023.93
2017-10-31T00:55:48.293Z,1023.92
2017-10-31T00:56:56.959Z,1023.91
2017-10-31T00:58:06.281Z,1023.91
2017-10-31T00:59:15.597Z,1023.89
2017-10-31T01:00:24.798Z,1023.9
2017-10-31T01:01:33.793Z,1023.9
2017-10-31T01:02:42.780Z,1023.86
2017-10-31T01:03:51.450Z,1023.87
2017-10-31T01:05:00.767Z,1023.83
2017-10-31T01:06:09.762Z,1023.84
2017-10-31T01:07:19.088Z,1023.82
2017-10-31T01:08:28.072Z,1023.81
2017-10-31T01:09:37.065Z,1023.82
2017-10-31T01:10:46.733Z,1023.86
2017-10-31T01:11:55.713Z,1023.8
2017-10-31T01:13:04.705Z,1023.84
2017-10-31T01:14:13.690Z,1023.81
2017-10-31T01:15:23.016Z,1023.79
2017-10-31T01:16:32.021Z,1023.75
2017-10-31T01:17:41.655Z,1023.81
2017-10-31T01:18:50.322Z,1023.77
2017-10-31T01:19:58.973Z,1023.72
2017-10-31T01:21:08.621Z,1023.75
2017-10-31T01:22:17.618Z,1023.75
2017-10-31T01:23:26.592Z,1023.75
2017-10-31T01:24:35.283Z,1023.74
2017-10-31T01:25:44.933Z,1023.71
2017-10-31T01:26:53.671Z,1023.68
2017-10-31T01:28:02.690Z,1023.71
2017-10-31T01:29:11.692Z,1023.69
2017-10-31T01:30:20.677Z,1023.75
2017-10-31T01:31:30.005Z,1023.73
2017-10-31T01:32:39.005Z,1023.7
2017-10-31T01:33:47.985Z,1023.72
2017-10-31T01:34:56.668Z,1023.68
2017-10-31T01:36:05.976Z,1023.65
2017-10-31T01:37:14.641Z,1023.59
2017-10-31T01:38:24.284Z,1023.65
2017-10-31T01:39:33.279Z,1023.57
2017-10-31T01:40:42.712Z,1023.61
2017-10-31T01:41:52.034Z,1023.6
2017-10-31T01:43:01.367Z,1023.66
2017-10-31T01:44:10.994Z,1023.59
2017-10-31T01:45:19.982Z,1023.6
2017-10-31T01:46:29.089Z,1023.58
2017-10-31T01:47:38.111Z,1023.54
2017-10-31T01:48:47.784Z,1023.58
2017-10-31T01:49:56.775Z,1023.57
2017-10-31T01:51:06.113Z,1023.53
2017-10-31T01:52:15.116Z,1023.54
2017-10-31T01:53:24.099Z,1023.51
2017-10-31T01:54:33.103Z,1023.5
2017-10-31T01:55:42.481Z,1023.5
2017-10-31T01:56:51.464Z,1023.52
2017-10-31T01:58:00.453Z,1023.48
2017-10-31T01:59:09.506Z,1023.45
2017-10-31T02:00:18.498Z,1023.45
2017-10-31T02:01:27.490Z,1023.45
2017-10-31T02:02:36.148Z,1023.47
2017-10-31T02:03:44.804Z,1023.41
2017-10-31T02:04:53.487Z,1023.42
2017-10-31T02:06:02.223Z,1023.45
2017-10-31T02:07:11.225Z,1023.44
2017-10-31T02:08:20.214Z,1023.43
2017-10-31T02:09:29.540Z,1023.4
2017-10-31T02:10:38.852Z,1023.35
2017-10-31T02:11:48.194Z,1023.4
2017-10-31T02:12:57.185Z,1023.41
2017-10-31T02:14:05.873Z,1023.37
2017-10-31T02:15:15.526Z,1023.34
2017-10-31T02:16:24.854Z,1023.32
2017-10-31T02:17:33.517Z,1023.37
2017-10-31T02:18:42.515Z,1023.34
2017-10-31T02:19:51.523Z,1023.32
2017-10-31T02:21:01.187Z,1023.35
2017-10-31T02:22:10.487Z,1023.33
2017-10-31T02:23:19.791Z,1023.37
2017-10-31T02:24:28.440Z,1023.34
2017-10-31T02:25:37.773Z,1023.36
2017-10-31T02:26:46.439Z,1023.33
2017-10-31T02:27:55.736Z,1023.37
2017-10-31T02:29:05.094Z,1023.37
2017-10-31T02:30:14.077Z,1023.38
2017-10-31T02:31:23.080Z,1023.33
2017-10-31T02:32:32.833Z,1023.37
2017-10-31T02:33:41.496Z,1023.39
2017-10-31T02:34:50.813Z,1023.37
2017-10-31T02:35:59.819Z,1023.37
2017-10-31T02:37:09.804Z,1023.41
2017-10-31T02:38:18.794Z,1023.37
2017-10-31T02:39:27.477Z,1023.39
2017-10-31T02:40:36.457Z,1023.39
2017-10-31T02:41:46.096Z,1023.38
2017-10-31T02:42:54.771Z,1023.39
2017-10-31T02:44:04.101Z,1023.39
2017-10-31T02:45:13.098Z,1023.39
2017-10-31T02:46:21.786Z,1023.42
2017-10-31T02:47:30.769Z,1023.42
2017-10-31T02:48:39.424Z,1023.41
2017-10-31T02:49:48.739Z,1023.4
2017-10-31T02:50:57.721Z,1023.4
2017-10-31T02:52:06.390Z,1023.37
2017-10-31T02:53:16.021Z,1023.34
2017-10-31T02:54:25.330Z,1023.38
2017-10-31T02:55:34.301Z,1023.37
2017-10-31T02:56:43.974Z,1023.37
2017-10-31T02:57:53.272Z,1023.37
2017-10-31T02:59:02.386Z,1023.35
2017-10-31T03:00:11.078Z,1023.36
2017-10-31T03:01:20.070Z,1023.32
2017-10-31T03:02:29.081Z,1023.31
2017-10-31T03:03:38.385Z,1023.33
2017-10-31T03:04:47.374Z,1023.36
2017-10-31T03:05:56.015Z,1023.33
2017-10-31T03:07:05.317Z,1023.34
2017-10-31T03:08:14.308Z,1023.35
2017-10-31T03:09:23.621Z,1023.37
2017-10-31T03:10:32.275Z,1023.35
2017-10-31T03:11:40.931Z,1023.36
2017-10-31T03:12:50.021Z,1023.36
2017-10-31T03:13:58.673Z,1023.33
2017-10-31T03:15:07.664Z,1023.3
2017-10-31T03:16:16.686Z,1023.3
2017-10-31T03:17:25.672Z,1023.31
2017-10-31T03:18:34.650Z,1023.32
2017-10-31T03:19:43.977Z,1023.32
2017-10-31T03:20:53.653Z,1023.32
2017-10-31T03:22:02.971Z,1023.31
2017-10-31T03:23:12.285Z,1023.34
2017-10-31T03:24:21.699Z,1023.35
2017-10-31T03:25:30.410Z,1023.33
2017-10-31T03:26:39.743Z,1023.31
2017-10-31T03:27:49.058Z,1023.3
2017-10-31T03:28:57.722Z,1023.28
2017-10-31T03:30:06.486Z,1023.28
2017-10-31T03:31:15.804Z,1023.3
2017-10-31T03:32:25.458Z,1023.29
2017-10-31T03:33:34.116Z,1023.3
2017-10-31T03:34:42.783Z,1023.31
2017-10-31T03:35:51.802Z,1023.29
2017-10-31T03:37:00.470Z,1023.31
2017-10-31T03:38:09.768Z,1023.32
2017-10-31T03:39:19.086Z,1023.28
2017-10-31T03:40:28.400Z,1023.29
2017-10-31T03:41:37.713Z,1023.3
2017-10-31T03:42:47.361Z,1023.32
2017-10-31T03:43:56.342Z,1023.33
2017-10-31T03:45:05.004Z,1023.34
2017-10-31T03:46:14.330Z,1023.32
2017-10-31T03:47:23.302Z,1023.28
2017-10-31T03:48:32.289Z,1023.24
2017-10-31T03:49:41.609Z,1023.23
2017-10-31T03:50:50.954Z,1023.23
2017-10-31T03:52:00.280Z,1023.19
2017-10-31T03:53:09.363Z,1023.19
2017-10-31T03:54:18.336Z,1023.17
2017-10-31T03:55:27.653Z,1023.17
2017-10-31T03:56:36.970Z,1023.18
2017-10-31T03:57:46.598Z,1023.16
2017-10-31T03:58:55.268Z,1023.15
2017-10-31T04:00:04.618Z,1023.18
2017-10-31T04:01:14.277Z,1023.18
2017-10-31T04:02:23.265Z,1023.16
2017-10-31T04:03:31.923Z,1023.18
2017-10-31T04:04:40.915Z,1023.15
2017-10-31T04:05:50.250Z,1023.14
2017-10-31T04:06:59.241Z,1023.16
2017-10-31T04:08:08.557Z,1023.19
2017-10-31T04:09:17.881Z,1023.19
2017-10-31T04:10:27.212Z,1023.2
2017-10-31T04:11:35.900Z,1023.17
2017-10-31T04:12:44.871Z,1023.13
2017-10-31T04:13:53.567Z,1023.08
2017-10-31T04:15:02.562Z,1023.14
2017-10-31T04:16:12.282Z,1023.12
2017-10-31T04:17:20.933Z,1023.13
2017-10-31T04:18:29.916Z,1023.12
2017-10-31T04:19:39.548Z,1023.12
2017-10-31T04:20:48.551Z,1023.07
2017-10-31T04:21:57.208Z,1023.04
2017-10-31T04:23:06.539Z,1023.05
2017-10-31T04:24:15.845Z,1023.08
2017-10-31T04:25:25.157Z,1023.07
2017-10-31T04:26:34.469Z,1023.05
2017-10-31T04:27:43.479Z,1023.03
2017-10-31T04:28:52.135Z,1023.01
2017-10-31T04:30:01.440Z,1022.97
2017-10-31T04:31:10.099Z,1022.97
2017-10-31T04:32:19.421Z,1023.01
2017-10-31T04:33:28.079Z,1022.99
2017-10-31T04:34:36.744Z,1023.03
2017-10-31T04:35:45.396Z,1023.02
2017-10-31T04:36:54.726Z,1023.03
2017-10-31T04:38:03.724Z,1023.01
2017-10-31T04:39:12.405Z,1022.99
2017-10-31T04:40:21.421Z,1023
2017-10-31T04:41:30.737Z,1022.98
2017-10-31T04:42:39.412Z,1022.96
2017-10-31T04:43:48.743Z,1022.97
2017-10-31T04:44:58.061Z,1022.95
2017-10-31T04:46:07.062Z,1022.95
2017-10-31T04:47:16.052Z,1022.95
2017-10-31T04:48:25.054Z,1022.95
2017-10-31T04:49:34.374Z,1022.98
2017-10-31T04:50:43.384Z,1022.98
2017-10-31T04:51:52.394Z,1022.96
2017-10-31T04:53:01.388Z,1022.96
2017-10-31T04:54:10.394Z,1022.95
2017-10-31T04:55:19.371Z,1022.97
2017-10-31T04:56:28.696Z,1022.96
2017-10-31T04:57:38.666Z,1022.92
2017-10-31T04:58:47.673Z,1022.94
2017-10-31T04:59:57.030Z,1022.95
2017-10-31T05:01:06.369Z,1022.97
2017-10-31T05:02:15.023Z,1023.03
2017-10-31T05:03:23.761Z,1022.97
2017-10-31T05:04:33.446Z,1022.97
2017-10-31T05:05:43.095Z,1022.97
2017-10-31T05:06:51.758Z,1022.97
2017-10-31T05:08:00.413Z,1022.97
2017-10-31T05:09:09.742Z,1022.98
2017-10-31T05:10:18.400Z,1022.99
2017-10-31T05:11:27.413Z,1023
2017-10-31T05:12:36.399Z,1022.99
2017-10-31T05:13:45.718Z,1023.01
2017-10-31T05:14:54.716Z,1023.01
2017-10-31T05:16:03.716Z,1023.1
2017-10-31T05:17:12.701Z,1023.07
2017-10-31T05:18:21.694Z,1023.1
2017-10-31T05:19:30.998Z,1023.08
2017-10-31T05:20:40.305Z,1023.09
2017-10-31T05:21:48.973Z,1023.06
2017-10-31T05:22:57.967Z,1023.05
2017-10-31T05:24:07.952Z,1023.06
2017-10-31T05:25:17.609Z,1023.07
2017-10-31T05:26:26.909Z,1023.06
2017-10-31T05:27:35.920Z,1023.05
2017-10-31T05:28:45.307Z,1023.01
2017-10-31T05:29:54.337Z,1023
2017-10-31T05:31:03.729Z,1022.99
2017-10-31T05:32:12.706Z,1022.97
2017-10-31T05:33:22.361Z,1022.99
2017-10-31T05:34:31.337Z,1022.97
2017-10-31T05:35:40.330Z,1022.97
2017-10-31T05:36:50.313Z,1022.98
2017-10-31T05:37:59.651Z,1022.97
2017-10-31T05:39:08.657Z,1022.99
2017-10-31T05:40:17.309Z,1022.95
2017-10-31T05:41:26.631Z,1022.95
2017-10-31T05:42:35.608Z,1022.97
2017-10-31T05:43:44.607Z,1022.95
2017-10-31T05:44:53.594Z,1022.91
2017-10-31T05:46:02.255Z,1022.95
2017-10-31T05:47:10.903Z,1022.92
2017-10-31T05:48:19.890Z,1022.95
2017-10-31T05:49:29.546Z,1022.93
2017-10-31T05:50:38.878Z,1022.93
2017-10-31T05:51:48.201Z,1022.9
2017-10-31T05:52:57.515Z,1022.89
2017-10-31T05:54:06.497Z,1022.9
2017-10-31T05:55:15.806Z,1022.93
2017-10-31T05:56:25.433Z,1022.96
2017-10-31T05:57:34.083Z,1022.94
2017-10-31T05:58:43.421Z,1022.94
2017-10-31T05:59:52.117Z,1022.94
2017-10-31T06:01:01.773Z,1022.89
2017-10-31T06:02:11.081Z,1022.91
2017-10-31T06:03:19.747Z,1022.97
2017-10-31T06:04:29.055Z,1022.97
2017-10-31T06:05:38.040Z,1023
2017-10-31T06:06:47.706Z,1022.98
2017-10-31T06:07:57.088Z,1022.98
2017-10-31T06:09:06.094Z,1022.97
2017-10-31T06:10:15.101Z,1022.96
2017-10-31T06:11:23.848Z,1022.99
2017-10-31T06:12:32.856Z,1022.96
2017-10-31T06:13:41.884Z,1022.96
2017-10-31T06:14:50.553Z,1022.96
2017-10-31T06:15:59.541Z,1022.93
2017-10-31T06:17:08.203Z,1022.94
2017-10-31T06:18:17.194Z,1022.94
2017-10-31T06:19:26.187Z,1022.93
2017-10-31T06:20:35.508Z,1022.93
2017-10-31T06:21:45.067Z,1022.93
2017-10-31T06:22:53.706Z,1022.94
2017-10-31T06:24:02.693Z,1022.98
2017-10-31T06:25:11.680Z,1023
2017-10-31T06:26:21.005Z,1023.02
2017-10-31T06:27:30.005Z,1023.02
2017-10-31T06:28:39.668Z,1023.03
2017-10-31T06:29:48.656Z,1023.03
2017-10-31T06:30:57.655Z,1023.02
2017-10-31T06:32:06.328Z,1023
2017-10-31T06:33:15.395Z,1023.05
2017-10-31T06:34:24.392Z,1022.99
2017-10-31T06:35:33.077Z,1022.97
2017-10-31T06:36:41.742Z,1022.99
2017-10-31T06:37:51.057Z,1022.98
2017-10-31T06:39:00.407Z,1023.01
2017-10-31T06:40:09.715Z,1022.97
2017-10-31T06:41:19.044Z,1022.99
2017-10-31T06:42:27.694Z,1022.99
2017-10-31T06:43:37.008Z,1023.1
2017-10-31T06:44:45.995Z,1023.06
2017-10-31T06:45:55.319Z,1023.1
2017-10-31T06:47:04.322Z,1023.13
2017-10-31T06:48:13.641Z,1023.14
2017-10-31T06:49:22.614Z,1023.13
2017-10-31T06:50:31.927Z,1023.16
2017-10-31T06:51:40.915Z,1023.18
2017-10-31T06:52:49.888Z,1023.17
2017-10-31T06:53:59.559Z,1023.18
2017-10-31T06:55:08.694Z,1023.19
2017-10-31T06:56:18.030Z,1023.18
2017-10-31T06:57:27.558Z,1023.24
2017-10-31T06:58:37.613Z,1023.21
2017-10-31T06:59:46.740Z,1023.21
2017-10-31T07:00:55.806Z,1023.22
2017-10-31T07:02:05.711Z,1023.21
2017-10-31T07:03:15.138Z,1023.23
2017-10-31T07:04:24.037Z,1023.23
2017-10-31T07:05:33.342Z,1023.2
2017-10-31T07:06:42.090Z,1023.26
2017-10-31T07:07:51.761Z,1023.26
2017-10-31T07:09:00.727Z,1023.26
2017-10-31T07:10:09.382Z,1023.27
2017-10-31T07:11:18.368Z,1023.31
2017-10-31T07:12:27.709Z,1023.28
2017-10-31T07:13:37.040Z,1023.27
2017-10-31T07:14:45.997Z,1023.27
2017-10-31T07:15:55.310Z,1023.27
2017-10-31T07:17:03.970Z,1023.28
2017-10-31T07:18:13.273Z,1023.26
2017-10-31T07:19:22.255Z,1023.3
2017-10-31T07:20:31.896Z,1023.27
2017-10-31T07:21:40.600Z,1023.26
2017-10-31T07:22:50.234Z,1023.26
2017-10-31T07:23:59.258Z,1023.26
2017-10-31T07:25:09.556Z,1023.34
2017-10-31T07:26:18.312Z,1023.28
2017-10-31T07:27:28.398Z,1023.24
2017-10-31T07:28:37.508Z,1023.23
2017-10-31T07:29:46.984Z,1023.33
2017-10-31T07:30:56.644Z,1023.27
2017-10-31T07:32:07.172Z,1023.29
2017-10-31T07:33:18.645Z,1023.25
2017-10-31T07:34:27.303Z,1023.26
2017-10-31T07:35:36.711Z,1023.25
2017-10-31T07:36:46.012Z,1023.23
2017-10-31T07:37:54.794Z,1023.26
2017-10-31T07:39:03.783Z,1023.29
2017-10-31T07:40:12.429Z,1023.31
2017-10-31T07:41:21.556Z,1023.3
2017-10-31T07:42:30.410Z,1023.3
2017-10-31T07:43:39.555Z,1023.26
2017-10-31T07:44:48.559Z,1023.29
2017-10-31T07:45:58.563Z,1023.3
2017-10-31T07:47:07.670Z,1023.31
2017-10-31T07:48:16.394Z,1023.27
2017-10-31T07:49:26.061Z,1023.26
2017-10-31T07:50:35.165Z,1023.28
2017-10-31T07:51:43.906Z,1023.28
2017-10-31T07:52:52.588Z,1023.28
2017-10-31T07:54:02.228Z,1023.3
2017-10-31T07:55:11.884Z,1023.3
2017-10-31T07:56:20.855Z,1023.27
2017-10-31T07:57:29.541Z,1023.3
2017-10-31T07:58:38.514Z,1023.3
2017-10-31T07:59:47.499Z,1023.3
2017-10-31T08:00:56.817Z,1023.29
2017-10-31T08:02:05.844Z,1023.29
2017-10-31T08:03:14.507Z,1023.32
2017-10-31T08:04:24.263Z,1023.33
2017-10-31T08:05:33.567Z,1023.39
2017-10-31T08:06:43.266Z,1023.34
2017-10-31T08:07:52.276Z,1023.35
2017-10-31T08:09:01.270Z,1023.36
2017-10-31T08:10:09.941Z,1023.36
2017-10-31T08:11:19.273Z,1023.39
2017-10-31T08:12:28.497Z,1023.42
2017-10-31T08:13:37.879Z,1023.39
2017-10-31T08:14:46.931Z,1023.38
2017-10-31T08:15:56.576Z,1023.37
2017-10-31T08:17:05.223Z,1023.35
2017-10-31T08:18:14.858Z,1023.36
2017-10-31T08:19:23.891Z,1023.33
2017-10-31T08:20:32.895Z,1023.33
2017-10-31T08:21:41.613Z,1023.32
2017-10-31T08:22:50.531Z,1023.33
2017-10-31T08:23:59.966Z,1023.35
2017-10-31T08:25:08.960Z,1023.36
2017-10-31T08:26:17.947Z,1023.32
2017-10-31T08:27:27.622Z,1023.29
2017-10-31T08:28:36.637Z,1023.3
2017-10-31T08:29:45.975Z,1023.28
2017-10-31T08:30:55.298Z,1023.32
2017-10-31T08:32:04.295Z,1023.28
2017-10-31T08:33:13.288Z,1023.31
2017-10-31T08:34:22.530Z,1023.3
2017-10-31T08:35:31.873Z,1023.3
2017-10-31T08:36:41.063Z,1023.29
2017-10-31T08:37:50.049Z,1023.28
2017-10-31T08:38:58.710Z,1023.24
2017-10-31T08:40:08.034Z,1023.22
2017-10-31T08:41:17.695Z,1023.23
2017-10-31T08:42:26.674Z,1023.27
2017-10-31T08:43:35.997Z,1023.26
2017-10-31T08:44:45.039Z,1023.29
2017-10-31T08:45:54.018Z,1023.3
2017-10-31T08:47:03.032Z,1023.3
2017-10-31T08:48:12.226Z,1023.22
2017-10-31T08:49:21.577Z,1023.26
2017-10-31T08:50:31.360Z,1023.24
2017-10-31T08:51:40.012Z,1023.22
2017-10-31T08:52:49.725Z,1023.26
2017-10-31T08:54:01.143Z,1023.21
2017-10-31T08:55:10.776Z,1023.24
2017-10-31T08:56:20.390Z,1023.27
2017-10-31T08:57:29.937Z,1023.3
2017-10-31T08:58:39.376Z,1023.28
2017-10-31T08:59:49.678Z,1023.29
2017-10-31T09:00:58.835Z,1023.28
2017-10-31T09:02:07.978Z,1023.36
2017-10-31T09:03:17.010Z,1023.34
2017-10-31T09:04:26.353Z,1023.36
2017-10-31T09:05:35.509Z,1023.39
2017-10-31T09:06:44.933Z,1023.38
2017-10-31T09:07:54.681Z,1023.37
2017-10-31T09:09:04.119Z,1023.37
2017-10-31T09:10:13.271Z,1023.36
2017-10-31T09:11:23.514Z,1023.36
2017-10-31T09:12:33.295Z,1023.33
2017-10-31T09:13:42.336Z,1023.34
2017-10-31T09:14:51.421Z,1023.32
2017-10-31T09:16:00.913Z,1023.28
2017-10-31T09:17:10.033Z,1023.28
2017-10-31T09:18:19.246Z,1023.29
2017-10-31T09:19:28.143Z,1023.3
2017-10-31T09:20:37.748Z,1023.31
2017-10-31T09:21:47.500Z,1023.34
2017-10-31T09:22:57.230Z,1023.35
2017-10-31T09:24:07.149Z,1023.36
2017-10-31T09:25:18.305Z,1023.32
2017-10-31T09:26:27.476Z,1023.34
2017-10-31T09:27:36.449Z,1023.34
2017-10-31T09:28:46.495Z,1023.28
2017-10-31T09:29:55.761Z,1023.29
2017-10-31T09:31:04.825Z,1023.31
2017-10-31T09:32:13.820Z,1023.33
2017-10-31T09:33:23.525Z,1023.33
2017-10-31T09:34:33.397Z,1023.31
2017-10-31T09:35:42.159Z,1023.32
2017-10-31T09:36:51.206Z,1023.31
2017-10-31T09:38:00.480Z,1023.34
2017-10-31T09:39:09.547Z,1023.29
2017-10-31T09:40:18.284Z,1023.31
2017-10-31T09:41:27.710Z,1023.32
2017-10-31T09:42:37.386Z,1023.32
2017-10-31T09:43:46.730Z,1023.34
2017-10-31T09:44:55.490Z,1023.33
2017-10-31T09:46:05.394Z,1023.32
2017-10-31T09:47:14.618Z,1023.32
2017-10-31T09:48:26.219Z,1023.28
2017-10-31T09:49:35.667Z,1023.3
2017-10-31T09:50:45.679Z,1023.33
2017-10-31T09:51:55.211Z,1023.28
2017-10-31T09:53:04.758Z,1023.28
2017-10-31T09:54:13.766Z,1023.24
2017-10-31T09:55:23.415Z,1023.25
2017-10-31T09:56:33.250Z,1023.24
2017-10-31T09:57:42.580Z,1023.24
2017-10-31T09:58:51.260Z,1023.26
2017-10-31T10:00:00.588Z,1023.26
2017-10-31T10:01:09.628Z,1023.28
2017-10-31T10:02:18.631Z,1023.29
2017-10-31T10:03:27.983Z,1023.26
2017-10-31T10:04:37.091Z,1023.24
2017-10-31T10:05:46.140Z,1023.19
2017-10-31T10:06:54.826Z,1023.2
2017-10-31T10:08:04.677Z,1023.22
2017-10-31T10:09:13.679Z,1023.19
2017-10-31T10:10:23.011Z,1023.16
2017-10-31T10:11:31.695Z,1023.18
2017-10-31T10:12:41.027Z,1023.2
2017-10-31T10:13:51.178Z,1023.14
2017-10-31T10:15:00.337Z,1023.16
2017-10-31T10:16:09.747Z,1023.13
2017-10-31T10:17:18.751Z,1023.12
2017-10-31T10:18:27.410Z,1023.14
2017-10-31T10:19:36.186Z,1023.11
2017-10-31T10:20:45.838Z,1023.1
2017-10-31T10:21:55.519Z,1023.1
2017-10-31T10:23:04.864Z,1023.07
2017-10-31T10:24:14.184Z,1023.04
2017-10-31T10:25:22.902Z,1023.05
2017-10-31T10:26:31.895Z,1023.06
2017-10-31T10:27:40.650Z,1023.04
2017-10-31T10:28:49.671Z,1023
2017-10-31T10:30:00.100Z,1022.99
2017-10-31T10:31:09.730Z,1022.98
2017-10-31T10:32:19.207Z,1022.92
2017-10-31T10:33:29.721Z,1022.93
2017-10-31T10:34:38.993Z,1022.93
2017-10-31T10:35:47.991Z,1022.9
2017-10-31T10:36:57.167Z,1022.92
2017-10-31T10:38:05.906Z,1022.91
2017-10-31T10:39:14.574Z,1022.88
2017-10-31T10:40:23.237Z,1022.88
2017-10-31T10:41:32.611Z,1022.85
2017-10-31T10:42:41.373Z,1022.79
2017-10-31T10:43:50.683Z,1022.84
2017-10-31T10:44:59.685Z,1022.86
2017-10-31T10:46:09.684Z,1022.8
2017-10-31T10:47:18.661Z,1022.78
2017-10-31T10:48:28.020Z,1022.81
2017-10-31T10:49:37.719Z,1022.81
2017-10-31T10:50:46.730Z,1022.78
2017-10-31T10:51:55.727Z,1022.77
2017-10-31T10:53:05.248Z,1022.73
2017-10-31T10:54:14.580Z,1022.73
2017-10-31T10:55:23.928Z,1022.64
2017-10-31T10:56:32.985Z,1022.62
2017-10-31T10:57:42.770Z,1022.59
2017-10-31T10:58:52.031Z,1022.54
2017-10-31T11:00:01.757Z,1022.6
2017-10-31T11:01:10.835Z,1022.56
2017-10-31T11:02:20.261Z,1022.59
2017-10-31T11:03:28.995Z,1022.55
2017-10-31T11:04:37.670Z,1022.54
2017-10-31T11:05:47.011Z,1022.52
2017-10-31T11:06:55.989Z,1022.46
2017-10-31T11:08:04.999Z,1022.48
2017-10-31T11:09:14.676Z,1022.46
2017-10-31T11:10:23.345Z,1022.45
2017-10-31T11:11:32.347Z,1022.42
2017-10-31T11:12:41.705Z,1022.42
2017-10-31T11:13:51.051Z,1022.44
2017-10-31T11:15:00.718Z,1022.4
2017-10-31T11:16:10.345Z,1022.4
2017-10-31T11:17:19.882Z,1022.35
2017-10-31T11:18:29.200Z,1022.39
2017-10-31T11:19:38.192Z,1022.4
2017-10-31T11:20:47.512Z,1022.38
2017-10-31T11:21:56.885Z,1022.35
2017-10-31T11:23:06.166Z,1022.34
2017-10-31T11:24:15.815Z,1022.3
2017-10-31T11:25:24.874Z,1022.23
2017-10-31T11:26:33.522Z,1022.23
2017-10-31T11:27:42.551Z,1022.24
2017-10-31T11:28:51.538Z,1022.23
2017-10-31T11:30:00.852Z,1022.2
2017-10-31T11:31:09.864Z,1022.19
2017-10-31T11:32:19.174Z,1022.16
2017-10-31T11:33:28.815Z,1022.15
2017-10-31T11:34:38.597Z,1022.17
2017-10-31T11:35:47.618Z,1022.16
2017-10-31T11:36:57.304Z,1022.17
2017-10-31T11:38:07.030Z,1022.18
2017-10-31T11:39:16.262Z,1022.16
2017-10-31T11:40:25.934Z,1022.2
2017-10-31T11:41:34.649Z,1022.21
2017-10-31T11:42:43.375Z,1022.18
2017-10-31T11:43:52.764Z,1022.19
2017-10-31T11:45:02.051Z,1022.21
2017-10-31T11:46:11.611Z,1022.19
2017-10-31T11:47:21.363Z,1022.18
2017-10-31T11:48:31.864Z,1022.18
2017-10-31T11:49:42.825Z,1022.19
2017-10-31T11:50:51.953Z,1022.2
2017-10-31T11:52:02.163Z,1022.15
2017-10-31T11:53:12.628Z,1022.14
2017-10-31T11:54:22.022Z,1022.14
2017-10-31T11:55:32.159Z,1022.11
2017-10-31T11:56:42.191Z,1022.05
2017-10-31T11:57:52.036Z,1022.09
2017-10-31T11:59:01.702Z,1022.12
2017-10-31T12:00:10.493Z,1022.13
2017-10-31T12:01:20.187Z,1022.13
2017-10-31T12:02:30.033Z,1022.11
2017-10-31T12:03:39.653Z,1022.07
2017-10-31T12:04:48.917Z,1022.03
2017-10-31T12:05:58.523Z,1022
2017-10-31T12:07:08.379Z,1022.01
2017-10-31T12:08:18.664Z,1022.01
2017-10-31T12:09:27.980Z,1022.01
2017-10-31T12:10:37.644Z,1021.97
2017-10-31T12:11:46.663Z,1021.94
2017-10-31T12:12:56.115Z,1021.97
2017-10-31T12:14:05.110Z,1021.96
2017-10-31T12:15:14.147Z,1021.99
2017-10-31T12:16:23.218Z,1021.98
2017-10-31T12:17:33.920Z,1021.96
2017-10-31T12:18:42.964Z,1021.94
2017-10-31T12:19:52.334Z,1021.92
2017-10-31T12:21:02.800Z,1021.93
2017-10-31T12:22:12.510Z,1021.88
2017-10-31T12:23:22.857Z,1021.92
2017-10-31T12:24:32.464Z,1021.92
2017-10-31T12:25:42.486Z,1021.93
2017-10-31T12:26:51.829Z,1021.9
2017-10-31T12:28:01.572Z,1021.94
2017-10-31T12:29:11.141Z,1021.91
2017-10-31T12:30:20.565Z,1021.96
2017-10-31T12:31:30.691Z,1021.97
2017-10-31T12:32:40.258Z,1021.93
2017-10-31T12:33:50.391Z,1021.91
2017-10-31T12:34:59.521Z,1021.89
2017-10-31T12:36:08.845Z,1021.9
2017-10-31T12:37:18.005Z,1021.84
2017-10-31T12:38:27.308Z,1021.85
2017-10-31T12:39:36.576Z,1021.83
2017-10-31T12:40:45.740Z,1021.82
2017-10-31T12:41:55.090Z,1021.8
2017-10-31T12:43:05.390Z,1021.78
2017-10-31T12:44:15.400Z,1021.81
2017-10-31T12:45:25.226Z,1021.83
2017-10-31T12:46:34.574Z,1021.73
2017-10-31T12:47:44.253Z,1021.81
2017-10-31T12:48:53.776Z,1021.81
2017-10-31T12:50:02.884Z,1021.81
2017-10-31T12:51:12.055Z,1021.78
2017-10-31T12:52:21.259Z,1021.79
2017-10-31T12:53:30.785Z,1021.75
2017-10-31T12:54:39.699Z,1021.78
2017-10-31T12:55:49.347Z,1021.72
2017-10-31T12:56:58.188Z,1021.74
2017-10-31T12:58:07.333Z,1021.74
2017-10-31T12:59:19.766Z,1021.74
2017-10-31T13:00:29.160Z,1021.77
2017-10-31T13:01:39.360Z,1021.72
2017-10-31T13:02:48.113Z,1021.72
2017-10-31T13:03:56.986Z,1021.68
2017-10-31T13:05:06.153Z,1021.71
2017-10-31T13:06:15.381Z,1021.73
2017-10-31T13:07:24.865Z,1021.65
2017-10-31T13:08:34.192Z,1021.68
2017-10-31T13:09:43.689Z,1021.71
2017-10-31T13:10:52.558Z,1021.66
2017-10-31T13:12:02.126Z,1021.67
2017-10-31T13:13:11.482Z,1021.69
2017-10-31T13:14:20.680Z,1021.72
2017-10-31T13:15:29.995Z,1021.69
2017-10-31T13:16:39.675Z,1021.69
2017-10-31T13:17:48.656Z,1021.7
2017-10-31T13:18:57.987Z,1021.69
2017-10-31T13:20:06.975Z,1021.65
2017-10-31T13:21:16.052Z,1021.69
2017-10-31T13:22:26.009Z,1021.68
2017-10-31T13:23:35.056Z,1021.69
2017-10-31T13:24:44.095Z,1021.71
2017-10-31T13:25:53.774Z,1021.7
2017-10-31T13:27:02.515Z,1021.68
2017-10-31T13:28:12.050Z,1021.73
2017-10-31T13:29:21.785Z,1021.7
2017-10-31T13:30:31.484Z,1021.68
2017-10-31T13:31:40.518Z,1021.71
2017-10-31T13:32:49.937Z,1021.65
2017-10-31T13:33:59.649Z,1021.68
2017-10-31T13:35:08.362Z,1021.61
2017-10-31T13:36:17.409Z,1021.64
2017-10-31T13:37:26.479Z,1021.61
2017-10-31T13:38:35.802Z,1021.66
2017-10-31T13:39:44.513Z,1021.62
2017-10-31T13:40:53.574Z,1021.59
2017-10-31T13:42:02.574Z,1021.57
2017-10-31T13:43:11.590Z,1021.57
2017-10-31T13:44:20.568Z,1021.56
2017-10-31T13:45:29.898Z,1021.57
2017-10-31T13:46:39.223Z,1021.56
2017-10-31T13:47:48.670Z,1021.53
2017-10-31T13:48:57.683Z,1021.54
2017-10-31T13:50:07.021Z,1021.52
2017-10-31T13:51:15.683Z,1021.52
2017-10-31T13:52:25.018Z,1021.52
2017-10-31T13:53:33.797Z,1021.49
2017-10-31T13:54:43.784Z,1021.45
2017-10-31T13:55:52.458Z,1021.48
2017-10-31T13:57:01.482Z,1021.49
2017-10-31T13:58:10.494Z,1021.47
2017-10-31T13:59:19.486Z,1021.5
2017-10-31T14:00:28.541Z,1021.48